Terminal Aerodrome Forecast
Issued by NWS

Home | Current Version | Previous Version | Graphics & Text | Print | Product List | Glossary On
Versions: 1 2 3 4 5 6 7 8 9 10 11 12 13 14 15 16 17
751
FTUS43 KMPX 121736
TAFRWF
TAF
KRWF 121736Z 1218/1318 32016G26KT P6SM SKC
     FM122300 32009KT P6SM SKC
     FM130500 32004KT P6SM SKC
     FM131200 VRB03KT P6SM BKN150=

USA.gov is the U.S. government's official web portal to all federal, state and local government web resources and services.